LLM2226 USTR-URSS
Flight info
| Callsign | LLM2226 |
|---|---|
| Flight time | 3h 58m |
| Altitude | 34000 |
| Route | BUKOS1S BUKOS T797 MGR L992 AKB Z210 KODUM N996 AKT N154 ITAKA R227 BEMES A944 GUBOR G487 BINOL BINOL1L |
| Aircraft | A321/M-SDE3FGHIRWY/LB1 |
Departure
| Time | 2026-04-21 15:29 |
|---|---|
| Airport | Roshchino International Airport (USTR) |
Arrival
| Time | 2026-04-21 19:28 |
|---|---|
| Airport | Sochi International Airport (URSS) |
| Time | Latitude | Longitude | Altitude | Speed | Heading |
|---|---|---|---|---|---|
| 2026-04-21 14:56 | 57.17988 | 65.34955 | 390 ft | 0 kts | 42° |
| 2026-04-21 15:16 | 57.17987 | 65.34953 | 390 ft | 1 kts | 42° |
| 2026-04-21 15:17 | 57.17976 | 65.34935 | 390 ft | 2 kts | 42° |
| 2026-04-21 15:17 | 57.17965 | 65.34916 | 390 ft | 2 kts | 42° |
| 2026-04-21 15:17 | 57.17954 | 65.34898 | 390 ft | 1 kts | 42° |
| 2026-04-21 15:17 | 57.17946 | 65.34885 | 390 ft | 2 kts | 22° |
| 2026-04-21 15:18 | 57.17932 | 65.34882 | 390 ft | 2 kts | 347° |
| 2026-04-21 15:18 | 57.17920 | 65.34892 | 390 ft | 0 kts | 317° |
| 2026-04-21 15:18 | 57.17916 | 65.34901 | 390 ft | 1 kts | 313° |
| 2026-04-21 15:18 | 57.17915 | 65.34903 | 390 ft | 0 kts | 314° |
| 2026-04-21 15:21 | 57.17932 | 65.34869 | 390 ft | 6 kts | 314° |
| 2026-04-21 15:21 | 57.17969 | 65.34802 | 390 ft | 7 kts | 315° |
| 2026-04-21 15:21 | 57.18010 | 65.34727 | 390 ft | 8 kts | 315° |
| 2026-04-21 15:22 | 57.18055 | 65.34646 | 390 ft | 9 kts | 315° |
| 2026-04-21 15:22 | 57.18103 | 65.34558 | 390 ft | 10 kts | 314° |
| 2026-04-21 15:22 | 57.18153 | 65.34464 | 390 ft | 10 kts | 315° |
| 2026-04-21 15:22 | 57.18207 | 65.34364 | 390 ft | 11 kts | 314° |
| 2026-04-21 15:23 | 57.18263 | 65.34260 | 390 ft | 11 kts | 314° |
| 2026-04-21 15:23 | 57.18321 | 65.34151 | 390 ft | 12 kts | 314° |
| 2026-04-21 15:23 | 57.18382 | 65.34039 | 390 ft | 12 kts | 315° |
| 2026-04-21 15:23 | 57.18444 | 65.33923 | 390 ft | 12 kts | 314° |
| 2026-04-21 15:24 | 57.18508 | 65.33804 | 390 ft | 13 kts | 314° |
| 2026-04-21 15:24 | 57.18573 | 65.33684 | 390 ft | 13 kts | 314° |
| 2026-04-21 15:24 | 57.18639 | 65.33561 | 390 ft | 13 kts | 315° |
| 2026-04-21 15:24 | 57.18707 | 65.33435 | 390 ft | 13 kts | 314° |
| 2026-04-21 15:25 | 57.18776 | 65.33307 | 390 ft | 14 kts | 315° |
| 2026-04-21 15:25 | 57.18845 | 65.33178 | 390 ft | 14 kts | 314° |
| 2026-04-21 15:25 | 57.18914 | 65.33048 | 390 ft | 14 kts | 314° |
| 2026-04-21 15:25 | 57.18985 | 65.32918 | 390 ft | 14 kts | 314° |
| 2026-04-21 15:26 | 57.19056 | 65.32786 | 390 ft | 14 kts | 314° |
| 2026-04-21 15:26 | 57.19102 | 65.32636 | 390 ft | 13 kts | 249° |
| 2026-04-21 15:26 | 57.19063 | 65.32552 | 390 ft | 0 kts | 224° |
| 2026-04-21 15:26 | 57.19060 | 65.32547 | 390 ft | 4 kts | 224° |
| 2026-04-21 15:27 | 57.19035 | 65.32502 | 390 ft | 10 kts | 224° |
| 2026-04-21 15:27 | 57.18973 | 65.32414 | 390 ft | 10 kts | 183° |
| 2026-04-21 15:27 | 57.18925 | 65.32473 | 390 ft | 0 kts | 133° |
| 2026-04-21 15:28 | 57.18925 | 65.32474 | 390 ft | 0 kts | 133° |
| 2026-04-21 15:28 | 57.18835 | 65.32641 | 390 ft | 50 kts | 134° |
| 2026-04-21 15:29 | 57.18425 | 65.33404 | 390 ft | 115 kts | 134° |
| 2026-04-21 15:29 | 57.17739 | 65.34680 | 459 ft | 159 kts | 132° |
| 2026-04-21 15:29 | 57.16954 | 65.36140 | 1029 ft | 161 kts | 131° |
| 2026-04-21 15:29 | 57.16015 | 65.37154 | 1715 ft | 167 kts | 165° |
| 2026-04-21 15:30 | 57.14890 | 65.36620 | 2093 ft | 187 kts | 210° |
| 2026-04-21 15:30 | 57.14106 | 65.34526 | 2286 ft | 208 kts | 236° |
| 2026-04-21 15:30 | 57.13436 | 65.32084 | 2489 ft | 221 kts | 236° |
| 2026-04-21 15:30 | 57.12702 | 65.29517 | 2682 ft | 236 kts | 235° |
| 2026-04-21 15:31 | 57.11887 | 65.26811 | 2975 ft | 250 kts | 234° |
| 2026-04-21 15:31 | 57.11006 | 65.23982 | 3395 ft | 258 kts | 234° |
| 2026-04-21 15:31 | 57.10117 | 65.21173 | 4109 ft | 256 kts | 234° |
| 2026-04-21 15:31 | 57.09219 | 65.18375 | 4819 ft | 254 kts | 235° |
| 2026-04-21 15:32 | 57.08327 | 65.15614 | 5498 ft | 254 kts | 235° |
| 2026-04-21 15:32 | 57.07426 | 65.12832 | 6137 ft | 254 kts | 237° |
| 2026-04-21 15:32 | 57.06529 | 65.10075 | 6725 ft | 254 kts | 237° |
| 2026-04-21 15:32 | 57.05631 | 65.07307 | 7318 ft | 255 kts | 238° |
| 2026-04-21 15:33 | 57.04713 | 65.04484 | 7864 ft | 259 kts | 238° |
| 2026-04-21 15:33 | 57.03787 | 65.01645 | 8391 ft | 261 kts | 239° |
| 2026-04-21 15:33 | 57.02859 | 64.98798 | 8893 ft | 265 kts | 239° |
| 2026-04-21 15:33 | 57.01905 | 64.95881 | 9419 ft | 268 kts | 239° |
| 2026-04-21 15:34 | 57.00944 | 64.92944 | 9927 ft | 270 kts | 239° |
| 2026-04-21 15:34 | 56.99969 | 64.89967 | 10219 ft | 280 kts | 239° |
| 2026-04-21 15:34 | 56.98939 | 64.86823 | 10444 ft | 292 kts | 239° |
| 2026-04-21 15:34 | 56.97877 | 64.83591 | 10685 ft | 304 kts | 239° |
| 2026-04-21 15:35 | 56.96764 | 64.80209 | 10913 ft | 316 kts | 239° |
| 2026-04-21 15:35 | 56.95600 | 64.76685 | 11137 ft | 327 kts | 239° |
| 2026-04-21 15:35 | 56.94405 | 64.73065 | 11327 ft | 338 kts | 238° |
| 2026-04-21 15:35 | 56.93181 | 64.69371 | 11540 ft | 349 kts | 239° |
| 2026-04-21 15:36 | 56.91850 | 64.65569 | 11739 ft | 359 kts | 234° |
| 2026-04-21 15:36 | 56.90327 | 64.61968 | 12078 ft | 364 kts | 230° |
| 2026-04-21 15:36 | 56.88591 | 64.58563 | 12556 ft | 366 kts | 225° |
| 2026-04-21 15:36 | 56.86789 | 64.55338 | 13037 ft | 367 kts | 225° |
| 2026-04-21 15:37 | 56.84934 | 64.52042 | 13476 ft | 369 kts | 226° |
| 2026-04-21 15:37 | 56.83096 | 64.48781 | 13887 ft | 372 kts | 225° |
| 2026-04-21 15:37 | 56.81245 | 64.45505 | 14294 ft | 375 kts | 226° |
| 2026-04-21 15:37 | 56.79355 | 64.42161 | 14711 ft | 377 kts | 225° |
| 2026-04-21 15:38 | 56.77498 | 64.38878 | 15107 ft | 379 kts | 225° |
| 2026-04-21 15:38 | 56.75598 | 64.35525 | 15524 ft | 381 kts | 225° |
| 2026-04-21 15:38 | 56.73695 | 64.32175 | 15937 ft | 382 kts | 225° |
| 2026-04-21 15:38 | 56.71782 | 64.28810 | 16342 ft | 384 kts | 225° |
| 2026-04-21 15:39 | 56.69861 | 64.25435 | 16729 ft | 386 kts | 225° |
| 2026-04-21 15:39 | 56.67930 | 64.22048 | 17098 ft | 388 kts | 225° |
| 2026-04-21 15:39 | 56.65993 | 64.18658 | 17476 ft | 389 kts | 225° |
| 2026-04-21 15:39 | 56.64025 | 64.15217 | 17900 ft | 390 kts | 225° |
| 2026-04-21 15:40 | 56.62087 | 64.11833 | 18236 ft | 392 kts | 225° |
| 2026-04-21 15:40 | 56.60115 | 64.08397 | 18568 ft | 394 kts | 225° |
| 2026-04-21 15:40 | 56.58145 | 64.04967 | 18924 ft | 396 kts | 225° |
| 2026-04-21 15:40 | 56.56144 | 64.01490 | 19276 ft | 397 kts | 225° |
| 2026-04-21 15:41 | 56.54174 | 63.98072 | 19586 ft | 399 kts | 225° |
| 2026-04-21 15:41 | 56.52164 | 63.94587 | 19873 ft | 400 kts | 225° |
| 2026-04-21 15:41 | 56.50152 | 63.91106 | 20167 ft | 401 kts | 225° |
| 2026-04-21 15:41 | 56.48146 | 63.87640 | 20442 ft | 402 kts | 225° |
| 2026-04-21 15:42 | 56.46141 | 63.84181 | 20743 ft | 403 kts | 225° |
| 2026-04-21 15:42 | 56.44103 | 63.80673 | 21019 ft | 404 kts | 225° |
| 2026-04-21 15:42 | 56.42063 | 63.77168 | 21317 ft | 406 kts | 225° |
| 2026-04-21 15:42 | 56.40007 | 63.73637 | 21619 ft | 407 kts | 225° |
| 2026-04-21 15:43 | 56.37966 | 63.70139 | 21896 ft | 408 kts | 225° |
| 2026-04-21 15:43 | 56.35913 | 63.66622 | 22203 ft | 409 kts | 225° |
| 2026-04-21 15:43 | 56.33847 | 63.63093 | 22496 ft | 410 kts | 225° |
| 2026-04-21 15:43 | 56.31789 | 63.59586 | 22787 ft | 410 kts | 225° |
| 2026-04-21 15:44 | 56.29703 | 63.56032 | 23086 ft | 411 kts | 225° |
| 2026-04-21 15:44 | 56.27703 | 63.52426 | 23382 ft | 410 kts | 227° |
| 2026-04-21 15:44 | 56.25786 | 63.48615 | 23677 ft | 410 kts | 230° |
| 2026-04-21 15:44 | 56.23957 | 63.44677 | 23984 ft | 410 kts | 231° |
| 2026-04-21 15:45 | 56.22149 | 63.40799 | 24273 ft | 409 kts | 231° |
| 2026-04-21 15:45 | 56.20330 | 63.36907 | 24567 ft | 409 kts | 231° |
| 2026-04-21 15:45 | 56.18498 | 63.32990 | 24859 ft | 408 kts | 230° |
| 2026-04-21 15:45 | 56.16669 | 63.29086 | 25150 ft | 408 kts | 230° |
| 2026-04-21 15:46 | 56.14849 | 63.25199 | 25448 ft | 407 kts | 230° |
| 2026-04-21 15:46 | 56.13030 | 63.21320 | 25745 ft | 406 kts | 230° |
| 2026-04-21 15:46 | 56.11212 | 63.17449 | 26042 ft | 405 kts | 230° |
| 2026-04-21 15:46 | 56.09405 | 63.13610 | 26332 ft | 404 kts | 230° |
| 2026-04-21 15:47 | 56.07617 | 63.09815 | 26622 ft | 403 kts | 230° |
| 2026-04-21 15:47 | 56.05822 | 63.06015 | 26914 ft | 402 kts | 230° |
| 2026-04-21 15:47 | 56.04017 | 63.02195 | 27213 ft | 400 kts | 230° |
| 2026-04-21 15:47 | 56.02227 | 62.98414 | 27508 ft | 399 kts | 230° |
| 2026-04-21 15:48 | 56.00452 | 62.94672 | 27803 ft | 397 kts | 230° |
| 2026-04-21 15:48 | 55.98663 | 62.90905 | 28098 ft | 396 kts | 230° |
| 2026-04-21 15:48 | 55.96911 | 62.87219 | 28393 ft | 394 kts | 230° |
| 2026-04-21 15:48 | 55.95142 | 62.83506 | 28687 ft | 392 kts | 230° |
| 2026-04-21 15:49 | 55.93383 | 62.79821 | 28981 ft | 389 kts | 230° |
| 2026-04-21 15:49 | 55.91646 | 62.76184 | 29272 ft | 387 kts | 230° |
| 2026-04-21 15:49 | 55.89900 | 62.72536 | 29563 ft | 384 kts | 230° |
| 2026-04-21 15:49 | 55.88186 | 62.68961 | 29862 ft | 382 kts | 230° |
| 2026-04-21 15:50 | 55.86467 | 62.65375 | 30158 ft | 380 kts | 230° |
| 2026-04-21 15:50 | 55.84765 | 62.61834 | 30455 ft | 377 kts | 230° |
| 2026-04-21 15:50 | 55.83076 | 62.58324 | 30745 ft | 374 kts | 230° |
| 2026-04-21 15:50 | 55.81384 | 62.54816 | 31034 ft | 371 kts | 230° |
| 2026-04-21 15:51 | 55.79721 | 62.51370 | 31314 ft | 368 kts | 230° |
| 2026-04-21 15:51 | 55.78064 | 62.47940 | 31597 ft | 364 kts | 230° |
| 2026-04-21 15:51 | 55.76443 | 62.44590 | 31869 ft | 360 kts | 230° |
| 2026-04-21 15:51 | 55.74809 | 62.41222 | 32145 ft | 357 kts | 230° |
| 2026-04-21 15:52 | 55.73207 | 62.37927 | 32408 ft | 352 kts | 230° |
| 2026-04-21 15:52 | 55.71627 | 62.34673 | 32675 ft | 348 kts | 229° |
| 2026-04-21 15:52 | 55.70063 | 62.31451 | 32946 ft | 344 kts | 229° |
| 2026-04-21 15:52 | 55.68491 | 62.28215 | 33000 ft | 346 kts | 229° |
| 2026-04-21 15:53 | 55.66934 | 62.25016 | 33155 ft | 345 kts | 229° |
| 2026-04-21 15:53 | 55.65365 | 62.21794 | 33381 ft | 343 kts | 230° |
| 2026-04-21 15:53 | 55.62208 | 62.15326 | 33244 ft | 355 kts | 230° |
| 2026-04-21 15:54 | 55.60567 | 62.11972 | 32808 ft | 370 kts | 230° |
| 2026-04-21 15:54 | 55.58866 | 62.08503 | 32317 ft | 386 kts | 229° |
| 2026-04-21 15:54 | 55.57064 | 62.04826 | 31858 ft | 401 kts | 230° |
| 2026-04-21 15:54 | 55.55225 | 62.01090 | 31704 ft | 407 kts | 229° |
| 2026-04-21 15:55 | 55.51498 | 61.93536 | 31706 ft | 411 kts | 229° |
| 2026-04-21 15:55 | 55.47755 | 61.85968 | 31703 ft | 414 kts | 229° |
| 2026-04-21 15:56 | 55.43957 | 61.78310 | 31706 ft | 416 kts | 230° |
| 2026-04-21 15:56 | 55.40154 | 61.70664 | 31705 ft | 418 kts | 230° |
| 2026-04-21 15:57 | 55.36332 | 61.63015 | 31701 ft | 419 kts | 229° |
| 2026-04-21 15:57 | 55.32490 | 61.55348 | 31702 ft | 414 kts | 230° |
| 2026-04-21 15:58 | 55.28510 | 61.48103 | 31701 ft | 414 kts | 225° |
| 2026-04-21 15:58 | 55.24391 | 61.41096 | 31705 ft | 413 kts | 226° |
| 2026-04-21 15:59 | 55.22364 | 61.37647 | 31707 ft | 402 kts | 226° |
| 2026-04-21 15:59 | 55.20377 | 61.34269 | 31704 ft | 399 kts | 225° |
| 2026-04-21 15:59 | 55.16422 | 61.27581 | 31708 ft | 397 kts | 225° |
| 2026-04-21 16:00 | 55.12456 | 61.20891 | 31714 ft | 396 kts | 225° |
| 2026-04-21 16:00 | 55.08504 | 61.14249 | 31718 ft | 395 kts | 225° |
| 2026-04-21 16:01 | 55.04533 | 61.07621 | 31722 ft | 395 kts | 225° |
| 2026-04-21 16:01 | 55.00551 | 61.01147 | 31712 ft | 394 kts | 225° |
| 2026-04-21 16:02 | 54.96562 | 60.94680 | 31725 ft | 394 kts | 225° |
| 2026-04-21 16:02 | 54.92553 | 60.88190 | 31721 ft | 394 kts | 225° |
| 2026-04-21 16:03 | 54.88589 | 60.81754 | 31736 ft | 393 kts | 225° |
| 2026-04-21 16:03 | 54.84595 | 60.75260 | 31725 ft | 393 kts | 225° |
| 2026-04-21 16:04 | 54.80632 | 60.68836 | 31728 ft | 393 kts | 225° |
| 2026-04-21 16:04 | 54.76660 | 60.62422 | 31732 ft | 393 kts | 225° |
| 2026-04-21 16:05 | 54.72664 | 60.55985 | 31735 ft | 393 kts | 225° |
| 2026-04-21 16:05 | 54.68687 | 60.49609 | 31736 ft | 392 kts | 225° |
| 2026-04-21 16:06 | 54.64684 | 60.43211 | 31738 ft | 393 kts | 225° |
| 2026-04-21 16:06 | 54.60677 | 60.36816 | 31741 ft | 392 kts | 225° |
| 2026-04-21 16:07 | 54.56686 | 60.30473 | 31740 ft | 391 kts | 224° |
| 2026-04-21 16:07 | 54.52699 | 60.24139 | 31743 ft | 392 kts | 224° |
| 2026-04-21 16:08 | 54.46717 | 60.14685 | 31748 ft | 391 kts | 224° |
| 2026-04-21 16:09 | 54.42726 | 60.08396 | 31750 ft | 392 kts | 224° |
| 2026-04-21 16:09 | 54.38698 | 60.02154 | 31753 ft | 393 kts | 222° |
| 2026-04-21 16:10 | 54.34401 | 59.96344 | 31756 ft | 392 kts | 220° |
| 2026-04-21 16:10 | 54.30117 | 59.90648 | 31759 ft | 392 kts | 220° |
| 2026-04-21 16:11 | 54.25829 | 59.84970 | 31761 ft | 392 kts | 220° |
| 2026-04-21 16:11 | 54.21515 | 59.79288 | 31761 ft | 392 kts | 220° |
| 2026-04-21 16:12 | 54.17210 | 59.73639 | 31761 ft | 392 kts | 220° |
| 2026-04-21 16:12 | 54.12890 | 59.67994 | 31764 ft | 392 kts | 220° |
| 2026-04-21 16:13 | 54.08557 | 59.62347 | 31771 ft | 392 kts | 220° |
| 2026-04-21 16:13 | 54.04248 | 59.56741 | 31773 ft | 392 kts | 220° |
| 2026-04-21 16:14 | 53.99905 | 59.51105 | 31771 ft | 392 kts | 220° |
| 2026-04-21 16:14 | 53.95585 | 59.45516 | 31772 ft | 391 kts | 220° |
| 2026-04-21 16:15 | 53.91285 | 59.39970 | 31777 ft | 391 kts | 220° |
| 2026-04-21 16:15 | 53.86952 | 59.34409 | 31779 ft | 390 kts | 219° |
| 2026-04-21 16:16 | 53.82627 | 59.28893 | 31781 ft | 391 kts | 219° |
| 2026-04-21 16:16 | 53.78307 | 59.23394 | 31781 ft | 391 kts | 219° |
| 2026-04-21 16:17 | 53.73979 | 59.17898 | 31784 ft | 390 kts | 219° |
| 2026-04-21 16:17 | 53.69633 | 59.12399 | 31790 ft | 391 kts | 219° |
| 2026-04-21 16:18 | 53.65311 | 59.06938 | 31796 ft | 391 kts | 220° |
| 2026-04-21 16:18 | 53.60955 | 59.01446 | 31792 ft | 392 kts | 220° |
| 2026-04-21 16:19 | 53.56600 | 58.95970 | 31789 ft | 392 kts | 219° |
| 2026-04-21 16:19 | 53.52255 | 58.90522 | 31789 ft | 391 kts | 220° |
| 2026-04-21 16:20 | 53.47913 | 58.85099 | 31790 ft | 390 kts | 219° |
| 2026-04-21 16:20 | 53.43379 | 58.80043 | 31790 ft | 393 kts | 214° |
| 2026-04-21 16:21 | 53.38520 | 58.75702 | 31783 ft | 397 kts | 210° |
| 2026-04-21 16:21 | 53.33437 | 58.72170 | 31770 ft | 401 kts | 205° |
| 2026-04-21 16:22 | 53.28117 | 58.69273 | 31769 ft | 404 kts | 203° |
| 2026-04-21 16:22 | 53.22752 | 58.66378 | 31774 ft | 405 kts | 203° |
| 2026-04-21 16:23 | 53.17413 | 58.63520 | 31782 ft | 406 kts | 203° |
| 2026-04-21 16:23 | 53.12047 | 58.60662 | 31783 ft | 406 kts | 203° |
| 2026-04-21 16:24 | 53.06687 | 58.57822 | 31782 ft | 406 kts | 203° |
| 2026-04-21 16:24 | 53.01320 | 58.54986 | 31789 ft | 407 kts | 203° |
| 2026-04-21 16:25 | 52.95933 | 58.52144 | 31787 ft | 406 kts | 203° |
| 2026-04-21 16:25 | 52.90583 | 58.49332 | 31789 ft | 406 kts | 203° |
| 2026-04-21 16:26 | 52.85199 | 58.46508 | 31792 ft | 406 kts | 203° |
| 2026-04-21 16:26 | 52.79839 | 58.43705 | 31792 ft | 405 kts | 203° |
| 2026-04-21 16:27 | 52.74507 | 58.40925 | 31786 ft | 406 kts | 203° |
| 2026-04-21 16:27 | 52.69133 | 58.38127 | 31794 ft | 406 kts | 203° |
| 2026-04-21 16:28 | 52.63742 | 58.35328 | 31801 ft | 406 kts | 203° |
| 2026-04-21 16:28 | 52.58376 | 58.32553 | 31803 ft | 407 kts | 202° |
| 2026-04-21 16:29 | 52.52984 | 58.29817 | 31803 ft | 407 kts | 202° |
| 2026-04-21 16:29 | 52.47583 | 58.27102 | 31807 ft | 407 kts | 202° |
| 2026-04-21 16:30 | 52.42166 | 58.24385 | 31809 ft | 407 kts | 202° |
| 2026-04-21 16:30 | 52.36767 | 58.21682 | 31816 ft | 407 kts | 202° |
| 2026-04-21 16:31 | 52.31382 | 58.18989 | 31824 ft | 406 kts | 202° |
| 2026-04-21 16:31 | 52.25995 | 58.16303 | 31821 ft | 407 kts | 202° |
| 2026-04-21 16:32 | 52.20590 | 58.13613 | 31825 ft | 407 kts | 202° |
| 2026-04-21 16:32 | 52.15155 | 58.10919 | 31827 ft | 408 kts | 202° |
| 2026-04-21 16:33 | 52.09756 | 58.08247 | 31831 ft | 408 kts | 202° |
| 2026-04-21 16:33 | 52.04307 | 58.05557 | 31839 ft | 408 kts | 202° |
| 2026-04-21 16:34 | 51.98883 | 58.02888 | 31835 ft | 408 kts | 202° |
| 2026-04-21 16:34 | 51.93469 | 58.00232 | 31834 ft | 408 kts | 202° |
| 2026-04-21 16:35 | 51.88067 | 57.97586 | 31840 ft | 408 kts | 202° |
| 2026-04-21 16:35 | 51.82665 | 57.94950 | 31843 ft | 408 kts | 202° |
| 2026-04-21 16:36 | 51.77249 | 57.92308 | 31844 ft | 407 kts | 202° |
| 2026-04-21 16:36 | 51.71842 | 57.89679 | 31841 ft | 408 kts | 202° |
| 2026-04-21 16:37 | 51.66422 | 57.87052 | 31843 ft | 407 kts | 202° |
| 2026-04-21 16:37 | 51.61011 | 57.84433 | 31840 ft | 407 kts | 202° |
| 2026-04-21 16:38 | 51.55590 | 57.81816 | 31841 ft | 407 kts | 202° |
| 2026-04-21 16:38 | 51.50174 | 57.79207 | 31838 ft | 407 kts | 202° |
| 2026-04-21 16:39 | 51.44791 | 57.76620 | 31847 ft | 407 kts | 202° |
| 2026-04-21 16:39 | 51.39359 | 57.74016 | 31850 ft | 407 kts | 202° |
| 2026-04-21 16:40 | 51.33962 | 57.71438 | 31861 ft | 406 kts | 202° |
| 2026-04-21 16:40 | 51.28551 | 57.68862 | 31861 ft | 406 kts | 202° |
| 2026-04-21 16:41 | 51.23166 | 57.66305 | 31858 ft | 405 kts | 202° |
| 2026-04-21 16:41 | 51.17779 | 57.63754 | 31862 ft | 405 kts | 202° |
| 2026-04-21 16:42 | 51.12394 | 57.61207 | 31868 ft | 405 kts | 202° |
| 2026-04-21 16:42 | 51.07015 | 57.58670 | 31867 ft | 405 kts | 202° |
| 2026-04-21 16:43 | 51.01613 | 57.56128 | 31871 ft | 405 kts | 202° |
| 2026-04-21 16:43 | 50.96218 | 57.53592 | 31875 ft | 405 kts | 202° |
| 2026-04-21 16:44 | 50.90825 | 57.51064 | 31876 ft | 405 kts | 202° |
| 2026-04-21 16:44 | 50.85440 | 57.48492 | 31881 ft | 403 kts | 204° |
| 2026-04-21 16:45 | 50.80121 | 57.45727 | 31884 ft | 404 kts | 204° |
| 2026-04-21 16:45 | 50.74808 | 57.42960 | 31885 ft | 403 kts | 204° |
| 2026-04-21 16:46 | 50.69473 | 57.40204 | 31884 ft | 404 kts | 204° |
| 2026-04-21 16:46 | 50.64182 | 57.37478 | 31884 ft | 404 kts | 204° |
| 2026-04-21 16:47 | 50.58836 | 57.34734 | 31886 ft | 404 kts | 203° |
| 2026-04-21 16:47 | 50.53498 | 57.32002 | 31888 ft | 405 kts | 202° |
| 2026-04-21 16:48 | 50.48169 | 57.29280 | 31893 ft | 404 kts | 202° |
| 2026-04-21 16:48 | 50.42834 | 57.26561 | 31894 ft | 404 kts | 202° |
| 2026-04-21 16:49 | 50.37494 | 57.23850 | 31899 ft | 403 kts | 203° |
| 2026-04-21 16:49 | 50.32187 | 57.21063 | 31905 ft | 402 kts | 205° |
| 2026-04-21 16:50 | 50.27064 | 57.17624 | 31902 ft | 400 kts | 210° |
| 2026-04-21 16:50 | 50.22228 | 57.13475 | 31907 ft | 397 kts | 215° |
| 2026-04-21 16:51 | 50.17670 | 57.08680 | 31906 ft | 395 kts | 218° |
| 2026-04-21 16:51 | 50.13181 | 57.03805 | 31904 ft | 396 kts | 217° |
| 2026-04-21 16:52 | 50.08669 | 56.98909 | 31909 ft | 396 kts | 218° |
| 2026-04-21 16:52 | 50.04158 | 56.94016 | 31914 ft | 396 kts | 217° |
| 2026-04-21 16:53 | 49.99642 | 56.89124 | 31909 ft | 395 kts | 217° |
| 2026-04-21 16:53 | 49.95160 | 56.84279 | 31911 ft | 395 kts | 217° |
| 2026-04-21 16:54 | 49.90643 | 56.79404 | 31910 ft | 396 kts | 217° |
| 2026-04-21 16:54 | 49.86151 | 56.74570 | 31911 ft | 396 kts | 218° |
| 2026-04-21 16:55 | 49.81641 | 56.69722 | 31912 ft | 396 kts | 218° |
| 2026-04-21 16:55 | 49.77118 | 56.64873 | 31918 ft | 395 kts | 218° |
| 2026-04-21 16:56 | 49.72624 | 56.60067 | 31913 ft | 396 kts | 218° |
| 2026-04-21 16:56 | 49.68091 | 56.55220 | 31912 ft | 396 kts | 218° |
| 2026-04-21 16:57 | 49.63555 | 56.50377 | 31914 ft | 397 kts | 218° |
| 2026-04-21 16:57 | 49.59048 | 56.45570 | 31918 ft | 396 kts | 218° |
| 2026-04-21 16:58 | 49.54530 | 56.40762 | 31916 ft | 397 kts | 217° |
| 2026-04-21 16:58 | 49.49986 | 56.35937 | 31913 ft | 397 kts | 217° |
| 2026-04-21 16:59 | 49.45444 | 56.31130 | 31908 ft | 397 kts | 217° |
| 2026-04-21 16:59 | 49.40905 | 56.26330 | 31907 ft | 396 kts | 217° |
| 2026-04-21 17:00 | 49.36364 | 56.21544 | 31908 ft | 397 kts | 217° |
| 2026-04-21 17:00 | 49.32584 | 56.17566 | 31911 ft | 398 kts | 217° |
| 2026-04-21 17:01 | 49.27258 | 56.11974 | 31921 ft | 398 kts | 217° |
| 2026-04-21 17:01 | 49.22710 | 56.07211 | 31927 ft | 398 kts | 216° |
| 2026-04-21 17:02 | 49.18140 | 56.02437 | 31931 ft | 399 kts | 217° |
| 2026-04-21 17:02 | 49.13569 | 55.97671 | 31930 ft | 398 kts | 216° |
| 2026-04-21 17:03 | 49.08996 | 55.92915 | 31930 ft | 398 kts | 216° |
| 2026-04-21 17:03 | 49.04453 | 55.88200 | 31934 ft | 398 kts | 216° |
| 2026-04-21 17:04 | 48.99862 | 55.83446 | 31927 ft | 398 kts | 216° |
| 2026-04-21 17:04 | 48.95300 | 55.78731 | 31929 ft | 398 kts | 216° |
| 2026-04-21 17:05 | 48.90702 | 55.73992 | 31933 ft | 399 kts | 216° |
| 2026-04-21 17:05 | 48.86118 | 55.69276 | 31935 ft | 399 kts | 216° |
| 2026-04-21 17:06 | 48.81539 | 55.64585 | 31936 ft | 399 kts | 216° |
| 2026-04-21 17:06 | 48.76938 | 55.59884 | 31938 ft | 399 kts | 216° |
| 2026-04-21 17:07 | 48.72353 | 55.55206 | 31935 ft | 399 kts | 216° |
| 2026-04-21 17:07 | 48.67767 | 55.50533 | 31933 ft | 399 kts | 216° |
| 2026-04-21 17:08 | 48.63159 | 55.45852 | 31933 ft | 399 kts | 216° |
| 2026-04-21 17:08 | 48.58545 | 55.41175 | 31932 ft | 400 kts | 216° |
| 2026-04-21 17:09 | 48.51624 | 55.34185 | 31933 ft | 400 kts | 215° |
| 2026-04-21 17:09 | 48.47023 | 55.29547 | 31930 ft | 401 kts | 215° |
| 2026-04-21 17:10 | 48.42376 | 55.24872 | 31929 ft | 402 kts | 215° |
| 2026-04-21 17:10 | 48.37742 | 55.20221 | 31932 ft | 402 kts | 215° |
| 2026-04-21 17:11 | 48.33122 | 55.15593 | 31933 ft | 402 kts | 215° |
| 2026-04-21 17:11 | 48.28464 | 55.10940 | 31931 ft | 402 kts | 215° |
| 2026-04-21 17:12 | 48.23833 | 55.06320 | 31932 ft | 402 kts | 215° |
| 2026-04-21 17:12 | 48.19196 | 55.01705 | 31932 ft | 402 kts | 215° |
| 2026-04-21 17:13 | 48.14555 | 54.97096 | 31940 ft | 402 kts | 215° |
| 2026-04-21 17:13 | 48.09913 | 54.92497 | 31948 ft | 402 kts | 214° |
| 2026-04-21 17:14 | 48.05246 | 54.87882 | 31954 ft | 403 kts | 214° |
| 2026-04-21 17:14 | 48.00568 | 54.83268 | 31952 ft | 404 kts | 214° |
| 2026-04-21 17:15 | 47.95889 | 54.78661 | 31955 ft | 404 kts | 214° |
| 2026-04-21 17:15 | 47.91195 | 54.74054 | 31952 ft | 404 kts | 214° |
| 2026-04-21 17:16 | 47.86509 | 54.69465 | 31955 ft | 404 kts | 214° |
| 2026-04-21 17:16 | 47.81827 | 54.64889 | 31950 ft | 404 kts | 214° |
| 2026-04-21 17:17 | 47.77137 | 54.60312 | 31950 ft | 404 kts | 214° |
| 2026-04-21 17:17 | 47.72459 | 54.55755 | 31951 ft | 405 kts | 214° |
| 2026-04-21 17:18 | 47.67755 | 54.51186 | 31948 ft | 404 kts | 214° |
| 2026-04-21 17:18 | 47.63064 | 54.46638 | 31951 ft | 404 kts | 214° |
| 2026-04-21 17:19 | 47.58361 | 54.42086 | 31952 ft | 404 kts | 214° |
| 2026-04-21 17:19 | 47.53679 | 54.37566 | 31948 ft | 405 kts | 214° |
| 2026-04-21 17:20 | 47.48963 | 54.33023 | 31945 ft | 405 kts | 213° |
| 2026-04-21 17:20 | 47.44259 | 54.28498 | 31944 ft | 406 kts | 213° |
| 2026-04-21 17:21 | 47.39540 | 54.23973 | 31949 ft | 406 kts | 213° |
| 2026-04-21 17:21 | 47.34818 | 54.19459 | 31944 ft | 406 kts | 213° |
| 2026-04-21 17:22 | 47.30079 | 54.14943 | 31948 ft | 406 kts | 213° |
| 2026-04-21 17:22 | 47.25347 | 54.10439 | 31943 ft | 407 kts | 213° |
| 2026-04-21 17:23 | 47.20582 | 54.05912 | 31946 ft | 407 kts | 212° |
| 2026-04-21 17:23 | 47.15837 | 54.01414 | 31939 ft | 407 kts | 213° |
| 2026-04-21 17:24 | 47.11079 | 53.96912 | 31941 ft | 408 kts | 212° |
| 2026-04-21 17:24 | 47.06324 | 53.92423 | 31940 ft | 408 kts | 213° |
| 2026-04-21 17:25 | 47.01559 | 53.87928 | 31935 ft | 409 kts | 212° |
| 2026-04-21 17:25 | 46.96778 | 53.83439 | 31943 ft | 410 kts | 212° |
| 2026-04-21 17:26 | 46.91995 | 53.78954 | 31937 ft | 411 kts | 212° |
| 2026-04-21 17:26 | 46.87190 | 53.74458 | 31937 ft | 410 kts | 212° |
| 2026-04-21 17:27 | 46.82367 | 53.69957 | 31941 ft | 410 kts | 212° |
| 2026-04-21 17:27 | 46.77560 | 53.65478 | 31943 ft | 412 kts | 212° |
| 2026-04-21 17:28 | 46.72747 | 53.61000 | 31946 ft | 412 kts | 212° |
| 2026-04-21 17:28 | 46.67944 | 53.56542 | 31945 ft | 412 kts | 212° |
| 2026-04-21 17:29 | 46.63086 | 53.52045 | 31949 ft | 413 kts | 212° |
| 2026-04-21 17:29 | 46.58244 | 53.47568 | 31945 ft | 413 kts | 212° |
| 2026-04-21 17:30 | 46.53404 | 53.43103 | 31950 ft | 414 kts | 212° |
| 2026-04-21 17:30 | 46.48551 | 53.38636 | 31948 ft | 416 kts | 212° |
| 2026-04-21 17:31 | 46.43675 | 53.34156 | 31956 ft | 415 kts | 211° |
| 2026-04-21 17:31 | 46.38799 | 53.29687 | 31957 ft | 415 kts | 211° |
| 2026-04-21 17:32 | 46.33942 | 53.25250 | 31957 ft | 415 kts | 211° |
| 2026-04-21 17:32 | 46.29053 | 53.20794 | 31951 ft | 415 kts | 211° |
| 2026-04-21 17:33 | 46.24182 | 53.16358 | 31961 ft | 416 kts | 211° |
| 2026-04-21 17:33 | 46.19291 | 53.11915 | 31972 ft | 416 kts | 211° |
| 2026-04-21 17:34 | 46.14406 | 53.07482 | 31971 ft | 417 kts | 211° |
| 2026-04-21 17:34 | 46.09475 | 53.03019 | 31975 ft | 418 kts | 211° |
| 2026-04-21 17:35 | 46.04580 | 52.98602 | 31973 ft | 419 kts | 211° |
| 2026-04-21 17:35 | 45.99658 | 52.94172 | 31980 ft | 419 kts | 211° |
| 2026-04-21 17:36 | 45.94693 | 52.89708 | 31975 ft | 419 kts | 211° |
| 2026-04-21 17:36 | 45.89764 | 52.85287 | 31970 ft | 420 kts | 211° |
| 2026-04-21 17:37 | 45.84808 | 52.80851 | 31985 ft | 419 kts | 211° |
| 2026-04-21 17:37 | 45.79871 | 52.76440 | 31980 ft | 418 kts | 211° |
| 2026-04-21 17:38 | 45.74949 | 52.72051 | 31976 ft | 419 kts | 211° |
| 2026-04-21 17:38 | 45.69993 | 52.67639 | 31978 ft | 419 kts | 211° |
| 2026-04-21 17:39 | 45.65056 | 52.63255 | 31981 ft | 420 kts | 211° |
| 2026-04-21 17:39 | 45.60106 | 52.58868 | 31977 ft | 420 kts | 211° |
| 2026-04-21 17:40 | 45.55135 | 52.54473 | 31978 ft | 421 kts | 211° |
| 2026-04-21 17:40 | 45.50184 | 52.50110 | 31970 ft | 421 kts | 211° |
| 2026-04-21 17:41 | 45.45213 | 52.45739 | 31978 ft | 421 kts | 211° |
| 2026-04-21 17:41 | 45.40248 | 52.41382 | 31968 ft | 421 kts | 211° |
| 2026-04-21 17:42 | 45.35251 | 52.37001 | 31971 ft | 422 kts | 211° |
| 2026-04-21 17:42 | 45.30249 | 52.32628 | 31974 ft | 423 kts | 210° |
| 2026-04-21 17:43 | 45.25249 | 52.28264 | 31975 ft | 423 kts | 210° |
| 2026-04-21 17:43 | 45.20256 | 52.23916 | 31972 ft | 423 kts | 210° |
| 2026-04-21 17:44 | 45.15248 | 52.19563 | 31972 ft | 424 kts | 210° |
| 2026-04-21 17:44 | 45.10204 | 52.15188 | 31977 ft | 424 kts | 210° |
| 2026-04-21 17:45 | 45.05196 | 52.10853 | 31976 ft | 425 kts | 210° |
| 2026-04-21 17:45 | 45.00156 | 52.06498 | 31982 ft | 426 kts | 210° |
| 2026-04-21 17:46 | 44.95118 | 52.02155 | 31981 ft | 426 kts | 210° |
| 2026-04-21 17:46 | 44.90064 | 51.97805 | 31980 ft | 425 kts | 210° |
| 2026-04-21 17:47 | 44.85003 | 51.93462 | 31973 ft | 426 kts | 210° |
| 2026-04-21 17:47 | 44.79952 | 51.89092 | 31973 ft | 426 kts | 211° |
| 2026-04-21 17:48 | 44.74989 | 51.84587 | 31970 ft | 427 kts | 212° |
| 2026-04-21 17:48 | 44.70045 | 51.80094 | 31967 ft | 426 kts | 212° |
| 2026-04-21 17:49 | 44.65044 | 51.75568 | 31965 ft | 427 kts | 212° |
| 2026-04-21 17:49 | 44.60088 | 51.71097 | 31966 ft | 428 kts | 212° |
| 2026-04-21 17:50 | 44.55072 | 51.66585 | 31962 ft | 427 kts | 212° |
| 2026-04-21 17:50 | 44.50091 | 51.62115 | 31954 ft | 427 kts | 212° |
| 2026-04-21 17:51 | 44.45079 | 51.57624 | 31956 ft | 427 kts | 212° |
| 2026-04-21 17:51 | 44.40078 | 51.53151 | 31962 ft | 427 kts | 212° |
| 2026-04-21 17:52 | 44.35109 | 51.48720 | 31956 ft | 427 kts | 212° |
| 2026-04-21 17:52 | 44.30089 | 51.44250 | 31954 ft | 427 kts | 212° |
| 2026-04-21 17:53 | 44.25085 | 51.39804 | 31952 ft | 428 kts | 212° |
| 2026-04-21 17:53 | 44.20096 | 51.35380 | 31945 ft | 428 kts | 212° |
| 2026-04-21 17:54 | 44.15080 | 51.30942 | 31945 ft | 428 kts | 211° |
| 2026-04-21 17:54 | 44.10064 | 51.26511 | 31948 ft | 428 kts | 211° |
| 2026-04-21 17:55 | 44.05024 | 51.22067 | 31955 ft | 429 kts | 211° |
| 2026-04-21 17:55 | 43.99970 | 51.17621 | 31957 ft | 429 kts | 211° |
| 2026-04-21 17:56 | 43.95087 | 51.12977 | 31956 ft | 430 kts | 219° |
| 2026-04-21 17:56 | 43.91098 | 51.06770 | 31970 ft | 434 kts | 234° |
| 2026-04-21 17:57 | 43.88443 | 50.99279 | 31979 ft | 439 kts | 249° |
| 2026-04-21 17:57 | 43.87332 | 50.90952 | 31982 ft | 446 kts | 264° |
| 2026-04-21 17:58 | 43.87322 | 50.82335 | 31988 ft | 447 kts | 267° |
| 2026-04-21 17:58 | 43.87389 | 50.73784 | 31988 ft | 446 kts | 267° |
| 2026-04-21 17:59 | 43.87438 | 50.65238 | 31988 ft | 446 kts | 267° |
| 2026-04-21 17:59 | 43.87472 | 50.56679 | 31996 ft | 447 kts | 268° |
| 2026-04-21 18:00 | 43.87499 | 50.48086 | 31992 ft | 447 kts | 268° |
| 2026-04-21 18:00 | 43.87519 | 50.39476 | 32003 ft | 448 kts | 268° |
| 2026-04-21 18:01 | 43.87532 | 50.30859 | 32001 ft | 448 kts | 267° |
| 2026-04-21 18:01 | 43.87537 | 50.22256 | 32003 ft | 448 kts | 267° |
| 2026-04-21 18:02 | 43.87537 | 50.13660 | 31997 ft | 447 kts | 267° |
| 2026-04-21 18:02 | 43.87529 | 50.05018 | 32006 ft | 447 kts | 267° |
| 2026-04-21 18:03 | 43.87516 | 49.96421 | 32006 ft | 447 kts | 267° |
| 2026-04-21 18:03 | 43.87496 | 49.87790 | 32002 ft | 446 kts | 267° |
| 2026-04-21 18:04 | 43.87469 | 49.79128 | 32022 ft | 446 kts | 267° |
| 2026-04-21 18:04 | 43.87437 | 49.70600 | 32013 ft | 445 kts | 267° |
| 2026-04-21 18:05 | 43.87397 | 49.62006 | 32026 ft | 445 kts | 268° |
| 2026-04-21 18:05 | 43.87351 | 49.53497 | 32026 ft | 444 kts | 268° |
| 2026-04-21 18:06 | 43.87312 | 49.44957 | 32025 ft | 445 kts | 268° |
| 2026-04-21 18:06 | 43.87293 | 49.36411 | 32025 ft | 445 kts | 268° |
| 2026-04-21 18:07 | 43.87268 | 49.27869 | 32032 ft | 444 kts | 268° |
| 2026-04-21 18:07 | 43.87235 | 49.19339 | 32016 ft | 444 kts | 268° |
| 2026-04-21 18:08 | 43.87194 | 49.10801 | 32015 ft | 444 kts | 268° |
| 2026-04-21 18:08 | 43.87148 | 49.02271 | 32009 ft | 443 kts | 268° |
| 2026-04-21 18:09 | 43.87095 | 48.93761 | 32010 ft | 443 kts | 268° |
| 2026-04-21 18:09 | 43.87036 | 48.85262 | 32007 ft | 443 kts | 268° |
| 2026-04-21 18:10 | 43.86971 | 48.76728 | 32008 ft | 443 kts | 268° |
| 2026-04-21 18:10 | 43.86900 | 48.68245 | 32004 ft | 443 kts | 268° |
| 2026-04-21 18:11 | 43.86821 | 48.59747 | 32004 ft | 442 kts | 268° |
| 2026-04-21 18:11 | 43.86737 | 48.51267 | 32004 ft | 442 kts | 268° |
| 2026-04-21 18:12 | 43.86647 | 48.42754 | 32005 ft | 442 kts | 268° |
| 2026-04-21 18:12 | 43.86551 | 48.34298 | 32005 ft | 441 kts | 267° |
| 2026-04-21 18:13 | 43.86446 | 48.25819 | 32004 ft | 440 kts | 267° |
| 2026-04-21 18:13 | 43.86337 | 48.17413 | 32003 ft | 440 kts | 267° |
| 2026-04-21 18:14 | 43.86161 | 48.04675 | 32006 ft | 440 kts | 267° |
| 2026-04-21 18:15 | 43.86037 | 47.96259 | 32005 ft | 440 kts | 267° |
| 2026-04-21 18:15 | 43.85905 | 47.87750 | 32005 ft | 440 kts | 267° |
| 2026-04-21 18:16 | 43.85767 | 47.79329 | 32008 ft | 440 kts | 268° |
| 2026-04-21 18:16 | 43.85624 | 47.70890 | 32004 ft | 440 kts | 268° |
| 2026-04-21 18:17 | 43.85475 | 47.62441 | 32006 ft | 440 kts | 268° |
| 2026-04-21 18:17 | 43.85319 | 47.53968 | 31999 ft | 439 kts | 268° |
| 2026-04-21 18:18 | 43.85158 | 47.45582 | 31996 ft | 439 kts | 268° |
| 2026-04-21 18:18 | 43.84989 | 47.37123 | 31998 ft | 439 kts | 268° |
| 2026-04-21 18:19 | 43.84815 | 47.28704 | 31998 ft | 440 kts | 267° |
| 2026-04-21 18:19 | 43.84635 | 47.20240 | 31999 ft | 440 kts | 267° |
| 2026-04-21 18:20 | 43.84448 | 47.11728 | 31994 ft | 441 kts | 268° |
| 2026-04-21 18:20 | 43.84254 | 47.03287 | 31995 ft | 441 kts | 268° |
| 2026-04-21 18:21 | 43.84055 | 46.94793 | 31996 ft | 441 kts | 268° |
| 2026-04-21 18:21 | 43.83850 | 46.86364 | 31993 ft | 440 kts | 268° |
| 2026-04-21 18:22 | 43.83643 | 46.77908 | 31990 ft | 439 kts | 269° |
| 2026-04-21 18:22 | 43.83822 | 46.69389 | 31987 ft | 439 kts | 274° |
| 2026-04-21 18:23 | 43.84598 | 46.61015 | 31986 ft | 438 kts | 278° |
| 2026-04-21 18:23 | 43.85529 | 46.52586 | 31982 ft | 438 kts | 278° |
| 2026-04-21 18:24 | 43.86440 | 46.44294 | 31974 ft | 438 kts | 278° |
| 2026-04-21 18:24 | 43.87345 | 46.35952 | 31966 ft | 438 kts | 278° |
| 2026-04-21 18:25 | 43.88237 | 46.27658 | 31964 ft | 437 kts | 277° |
| 2026-04-21 18:25 | 43.89125 | 46.19346 | 31968 ft | 437 kts | 277° |
| 2026-04-21 18:26 | 43.90007 | 46.11045 | 31973 ft | 436 kts | 278° |
| 2026-04-21 18:26 | 43.90878 | 46.02769 | 31972 ft | 436 kts | 278° |
| 2026-04-21 18:27 | 43.91740 | 45.94523 | 31976 ft | 435 kts | 278° |
| 2026-04-21 18:27 | 43.92316 | 45.86228 | 31980 ft | 434 kts | 272° |
| 2026-04-21 18:28 | 43.92513 | 45.77844 | 31974 ft | 434 kts | 271° |
| 2026-04-21 18:28 | 43.92685 | 45.69542 | 31970 ft | 434 kts | 271° |
| 2026-04-21 18:29 | 43.92854 | 45.61216 | 31971 ft | 433 kts | 271° |
| 2026-04-21 18:29 | 43.93019 | 45.52868 | 31970 ft | 434 kts | 271° |
| 2026-04-21 18:30 | 43.93178 | 45.44580 | 31964 ft | 433 kts | 271° |
| 2026-04-21 18:30 | 43.93332 | 45.36240 | 31970 ft | 433 kts | 271° |
| 2026-04-21 18:31 | 43.93478 | 45.27926 | 31963 ft | 433 kts | 270° |
| 2026-04-21 18:31 | 43.93619 | 45.19594 | 31954 ft | 433 kts | 271° |
| 2026-04-21 18:32 | 43.93753 | 45.11301 | 31963 ft | 433 kts | 270° |
| 2026-04-21 18:32 | 43.93882 | 45.02977 | 31953 ft | 433 kts | 270° |
| 2026-04-21 18:33 | 43.94005 | 44.94659 | 31953 ft | 432 kts | 270° |
| 2026-04-21 18:33 | 43.94121 | 44.86363 | 31936 ft | 433 kts | 271° |
| 2026-04-21 18:34 | 43.94232 | 44.77991 | 31938 ft | 432 kts | 271° |
| 2026-04-21 18:34 | 43.94338 | 44.69693 | 31944 ft | 432 kts | 270° |
| 2026-04-21 18:35 | 43.94420 | 44.62774 | 31942 ft | 431 kts | 270° |
| 2026-04-21 18:35 | 43.94527 | 44.53134 | 31942 ft | 431 kts | 271° |
| 2026-04-21 18:36 | 43.94612 | 44.44862 | 31940 ft | 430 kts | 271° |
| 2026-04-21 18:36 | 43.94692 | 44.36608 | 31940 ft | 430 kts | 271° |
| 2026-04-21 18:37 | 43.94766 | 44.28369 | 31934 ft | 429 kts | 270° |
| 2026-04-21 18:37 | 43.94835 | 44.20159 | 31941 ft | 428 kts | 270° |
| 2026-04-21 18:38 | 43.94897 | 44.11899 | 31944 ft | 428 kts | 270° |
| 2026-04-21 18:38 | 43.94953 | 44.03677 | 31942 ft | 429 kts | 270° |
| 2026-04-21 18:39 | 43.95004 | 43.95414 | 31942 ft | 428 kts | 270° |
| 2026-04-21 18:39 | 43.95048 | 43.87214 | 31943 ft | 427 kts | 270° |
| 2026-04-21 18:40 | 43.95087 | 43.79042 | 31942 ft | 426 kts | 270° |
| 2026-04-21 18:40 | 43.95113 | 43.72205 | 31939 ft | 425 kts | 270° |
| 2026-04-21 18:41 | 43.95146 | 43.62663 | 31937 ft | 424 kts | 270° |
| 2026-04-21 18:41 | 43.95166 | 43.54509 | 31940 ft | 425 kts | 270° |
| 2026-04-21 18:42 | 43.95181 | 43.46334 | 31940 ft | 424 kts | 270° |
| 2026-04-21 18:42 | 43.95190 | 43.38161 | 31929 ft | 424 kts | 270° |
| 2026-04-21 18:43 | 43.95193 | 43.30060 | 31932 ft | 424 kts | 269° |
| 2026-04-21 18:43 | 43.95191 | 43.21886 | 31922 ft | 424 kts | 269° |
| 2026-04-21 18:44 | 43.95182 | 43.13732 | 31921 ft | 424 kts | 269° |
| 2026-04-21 18:44 | 43.95168 | 43.05608 | 31931 ft | 423 kts | 269° |
| 2026-04-21 18:45 | 43.95149 | 42.97467 | 31922 ft | 422 kts | 269° |
| 2026-04-21 18:45 | 43.95124 | 42.89390 | 31932 ft | 421 kts | 269° |
| 2026-04-21 18:46 | 43.95093 | 42.81313 | 31927 ft | 420 kts | 269° |
| 2026-04-21 18:46 | 43.95057 | 42.73227 | 31922 ft | 421 kts | 269° |
| 2026-04-21 18:47 | 43.95013 | 42.65126 | 31927 ft | 420 kts | 269° |
| 2026-04-21 18:47 | 43.94884 | 42.57071 | 31912 ft | 420 kts | 268° |
| 2026-04-21 18:48 | 43.94643 | 42.48992 | 31917 ft | 420 kts | 268° |
| 2026-04-21 18:48 | 43.94403 | 42.40918 | 31917 ft | 420 kts | 268° |
| 2026-04-21 18:49 | 43.94165 | 42.32884 | 31931 ft | 419 kts | 267° |
| 2026-04-21 18:49 | 43.93966 | 42.26173 | 31916 ft | 419 kts | 267° |
| 2026-04-21 18:50 | 43.93680 | 42.16786 | 31926 ft | 419 kts | 267° |
| 2026-04-21 18:50 | 43.93429 | 42.08756 | 31925 ft | 418 kts | 267° |
| 2026-04-21 18:51 | 43.93173 | 42.00706 | 31940 ft | 418 kts | 267° |
| 2026-04-21 18:51 | 43.92918 | 41.92862 | 31916 ft | 392 kts | 267° |
| 2026-04-21 18:51 | 43.92797 | 41.89187 | 31935 ft | 375 kts | 267° |
| 2026-04-21 18:52 | 43.92680 | 41.85658 | 31920 ft | 360 kts | 267° |
| 2026-04-21 18:52 | 43.92566 | 41.82256 | 31908 ft | 344 kts | 267° |
| 2026-04-21 18:52 | 43.92458 | 41.79031 | 31906 ft | 333 kts | 267° |
| 2026-04-21 18:53 | 43.92239 | 41.72660 | 31908 ft | 331 kts | 267° |
| 2026-04-21 18:53 | 43.92015 | 41.66246 | 31927 ft | 332 kts | 267° |
| 2026-04-21 18:54 | 43.91786 | 41.59834 | 31926 ft | 332 kts | 267° |
| 2026-04-21 18:54 | 43.91553 | 41.53460 | 31925 ft | 332 kts | 267° |
| 2026-04-21 18:55 | 43.91349 | 41.48134 | 31925 ft | 332 kts | 267° |
| 2026-04-21 18:55 | 43.91062 | 41.40703 | 31919 ft | 332 kts | 267° |
| 2026-04-21 18:56 | 43.90814 | 41.34383 | 31464 ft | 326 kts | 266° |
| 2026-04-21 18:56 | 43.90689 | 41.31270 | 30994 ft | 325 kts | 266° |
| 2026-04-21 18:56 | 43.90567 | 41.28170 | 30543 ft | 323 kts | 266° |
| 2026-04-21 18:56 | 43.90441 | 41.25066 | 30084 ft | 320 kts | 266° |
| 2026-04-21 18:57 | 43.90316 | 41.21992 | 29638 ft | 317 kts | 267° |
| 2026-04-21 18:57 | 43.90191 | 41.18980 | 29221 ft | 313 kts | 267° |
| 2026-04-21 18:57 | 43.90068 | 41.15985 | 28795 ft | 310 kts | 267° |
| 2026-04-21 18:57 | 43.89948 | 41.13052 | 28361 ft | 307 kts | 268° |
| 2026-04-21 18:58 | 43.89825 | 41.10106 | 27934 ft | 304 kts | 268° |
| 2026-04-21 18:58 | 43.89704 | 41.07195 | 27501 ft | 301 kts | 268° |
| 2026-04-21 18:58 | 43.89585 | 41.04342 | 27092 ft | 298 kts | 268° |
| 2026-04-21 18:58 | 43.89467 | 41.01511 | 26689 ft | 294 kts | 268° |
| 2026-04-21 18:59 | 43.89348 | 40.98688 | 26289 ft | 291 kts | 268° |
| 2026-04-21 18:59 | 43.89230 | 40.95942 | 25870 ft | 288 kts | 268° |
| 2026-04-21 18:59 | 43.89112 | 40.93201 | 25441 ft | 286 kts | 268° |
| 2026-04-21 18:59 | 43.88993 | 40.90463 | 25021 ft | 283 kts | 268° |
| 2026-04-21 19:00 | 43.88876 | 40.87746 | 24621 ft | 279 kts | 268° |
| 2026-04-21 19:00 | 43.88760 | 40.85109 | 24204 ft | 277 kts | 268° |
| 2026-04-21 19:00 | 43.88643 | 40.82462 | 23784 ft | 274 kts | 269° |
| 2026-04-21 19:00 | 43.88530 | 40.79855 | 23329 ft | 273 kts | 269° |
| 2026-04-21 19:01 | 43.88391 | 40.77234 | 22891 ft | 271 kts | 266° |
| 2026-04-21 19:01 | 43.88149 | 40.74683 | 22479 ft | 270 kts | 263° |
| 2026-04-21 19:01 | 43.87796 | 40.72115 | 22065 ft | 268 kts | 260° |
| 2026-04-21 19:01 | 43.87343 | 40.69655 | 21668 ft | 267 kts | 257° |
| 2026-04-21 19:02 | 43.86784 | 40.67211 | 21259 ft | 265 kts | 254° |
| 2026-04-21 19:02 | 43.86130 | 40.64841 | 20875 ft | 264 kts | 250° |
| 2026-04-21 19:02 | 43.85401 | 40.62523 | 20484 ft | 262 kts | 249° |
| 2026-04-21 19:02 | 43.84674 | 40.60220 | 20072 ft | 261 kts | 249° |
| 2026-04-21 19:03 | 43.83955 | 40.57952 | 19697 ft | 259 kts | 249° |
| 2026-04-21 19:03 | 43.83238 | 40.55696 | 19342 ft | 256 kts | 249° |
| 2026-04-21 19:03 | 43.82518 | 40.53431 | 18955 ft | 255 kts | 249° |
| 2026-04-21 19:03 | 43.81812 | 40.51218 | 18555 ft | 254 kts | 249° |
| 2026-04-21 19:04 | 43.81097 | 40.48976 | 18173 ft | 253 kts | 249° |
| 2026-04-21 19:04 | 43.80396 | 40.46787 | 17823 ft | 251 kts | 248° |
| 2026-04-21 19:04 | 43.79694 | 40.44598 | 17486 ft | 248 kts | 249° |
| 2026-04-21 19:04 | 43.78997 | 40.42426 | 17129 ft | 246 kts | 249° |
| 2026-04-21 19:05 | 43.78304 | 40.40261 | 16751 ft | 245 kts | 248° |
| 2026-04-21 19:05 | 43.77621 | 40.38134 | 16394 ft | 244 kts | 249° |
| 2026-04-21 19:05 | 43.76937 | 40.36006 | 16031 ft | 243 kts | 249° |
| 2026-04-21 19:05 | 43.76254 | 40.33880 | 15674 ft | 241 kts | 248° |
| 2026-04-21 19:06 | 43.75575 | 40.31765 | 15327 ft | 240 kts | 248° |
| 2026-04-21 19:06 | 43.74901 | 40.29670 | 14988 ft | 239 kts | 248° |
| 2026-04-21 19:06 | 43.74231 | 40.27593 | 14641 ft | 238 kts | 248° |
| 2026-04-21 19:06 | 43.73560 | 40.25514 | 14292 ft | 237 kts | 248° |
| 2026-04-21 19:07 | 43.72894 | 40.23444 | 13943 ft | 236 kts | 248° |
| 2026-04-21 19:07 | 43.72224 | 40.21371 | 13589 ft | 235 kts | 247° |
| 2026-04-21 19:07 | 43.71569 | 40.19342 | 13243 ft | 234 kts | 247° |
| 2026-04-21 19:07 | 43.70905 | 40.17288 | 12903 ft | 233 kts | 247° |
| 2026-04-21 19:08 | 43.70231 | 40.15274 | 12552 ft | 233 kts | 243° |
| 2026-04-21 19:08 | 43.69373 | 40.13382 | 12203 ft | 233 kts | 236° |
| 2026-04-21 19:08 | 43.68314 | 40.11667 | 11862 ft | 234 kts | 228° |
| 2026-04-21 19:08 | 43.67096 | 40.10199 | 11538 ft | 234 kts | 220° |
| 2026-04-21 19:09 | 43.65729 | 40.08983 | 11215 ft | 235 kts | 212° |
| 2026-04-21 19:09 | 43.64252 | 40.07984 | 10884 ft | 235 kts | 210° |
| 2026-04-21 19:09 | 43.62774 | 40.07038 | 10544 ft | 234 kts | 209° |
| 2026-04-21 19:09 | 43.61303 | 40.06100 | 10213 ft | 233 kts | 209° |
| 2026-04-21 19:10 | 43.59839 | 40.05171 | 9887 ft | 232 kts | 209° |
| 2026-04-21 19:10 | 43.58373 | 40.04243 | 9561 ft | 231 kts | 209° |
| 2026-04-21 19:10 | 43.56921 | 40.03321 | 9212 ft | 231 kts | 208° |
| 2026-04-21 19:10 | 43.55448 | 40.02384 | 8876 ft | 231 kts | 208° |
| 2026-04-21 19:11 | 43.54003 | 40.01468 | 8571 ft | 229 kts | 207° |
| 2026-04-21 19:11 | 43.52565 | 40.00560 | 8255 ft | 229 kts | 207° |
| 2026-04-21 19:11 | 43.51105 | 39.99636 | 7927 ft | 228 kts | 207° |
| 2026-04-21 19:11 | 43.49674 | 39.98732 | 7614 ft | 227 kts | 207° |
| 2026-04-21 19:12 | 43.48239 | 39.97827 | 7282 ft | 227 kts | 206° |
| 2026-04-21 19:12 | 43.46811 | 39.96936 | 6953 ft | 227 kts | 205° |
| 2026-04-21 19:12 | 43.45351 | 39.96109 | 6647 ft | 225 kts | 202° |
| 2026-04-21 19:12 | 43.43883 | 39.95370 | 6516 ft | 224 kts | 200° |
| 2026-04-21 19:13 | 43.42395 | 39.94699 | 6510 ft | 226 kts | 199° |
| 2026-04-21 19:13 | 43.40897 | 39.94022 | 6506 ft | 227 kts | 199° |
| 2026-04-21 19:13 | 43.39409 | 39.93348 | 6506 ft | 227 kts | 200° |
| 2026-04-21 19:13 | 43.37909 | 39.92669 | 6505 ft | 227 kts | 200° |
| 2026-04-21 19:14 | 43.36400 | 39.91986 | 6504 ft | 228 kts | 200° |
| 2026-04-21 19:14 | 43.34900 | 39.91307 | 6503 ft | 228 kts | 200° |
| 2026-04-21 19:14 | 43.33392 | 39.90626 | 6502 ft | 229 kts | 200° |
| 2026-04-21 19:14 | 43.31875 | 39.89941 | 6500 ft | 229 kts | 200° |
| 2026-04-21 19:15 | 43.30363 | 39.89257 | 6502 ft | 228 kts | 200° |
| 2026-04-21 19:15 | 43.28832 | 39.88567 | 6504 ft | 228 kts | 200° |
| 2026-04-21 19:15 | 43.27331 | 39.87889 | 6501 ft | 228 kts | 200° |
| 2026-04-21 19:15 | 43.25829 | 39.87212 | 6501 ft | 228 kts | 200° |
| 2026-04-21 19:16 | 43.24313 | 39.86530 | 6502 ft | 227 kts | 200° |
| 2026-04-21 19:16 | 43.22815 | 39.85857 | 6285 ft | 225 kts | 200° |
| 2026-04-21 19:16 | 43.21343 | 39.85193 | 6016 ft | 225 kts | 200° |
| 2026-04-21 19:16 | 43.19840 | 39.84518 | 5999 ft | 227 kts | 200° |
| 2026-04-21 19:17 | 43.16841 | 39.83172 | 6000 ft | 227 kts | 200° |
| 2026-04-21 19:17 | 43.15334 | 39.82496 | 6002 ft | 228 kts | 199° |
| 2026-04-21 19:17 | 43.13828 | 39.81820 | 5993 ft | 228 kts | 200° |
| 2026-04-21 19:18 | 43.12318 | 39.81143 | 5997 ft | 229 kts | 200° |
| 2026-04-21 19:18 | 43.10796 | 39.80462 | 5992 ft | 229 kts | 200° |
| 2026-04-21 19:18 | 43.09278 | 39.79783 | 5988 ft | 229 kts | 200° |
| 2026-04-21 19:18 | 43.07765 | 39.79092 | 5831 ft | 229 kts | 204° |
| 2026-04-21 19:19 | 43.06512 | 39.77831 | 5556 ft | 225 kts | 238° |
| 2026-04-21 19:19 | 43.06009 | 39.75820 | 5310 ft | 226 kts | 267° |
| 2026-04-21 19:19 | 43.06308 | 39.73717 | 5060 ft | 229 kts | 296° |
| 2026-04-21 19:19 | 43.07337 | 39.72079 | 4801 ft | 232 kts | 326° |
| 2026-04-21 19:20 | 43.08860 | 39.71357 | 4545 ft | 235 kts | 358° |
| 2026-04-21 19:20 | 43.10448 | 39.71789 | 4295 ft | 235 kts | 24° |
| 2026-04-21 19:20 | 43.11924 | 39.72730 | 4049 ft | 235 kts | 26° |
| 2026-04-21 19:20 | 43.13417 | 39.73626 | 3787 ft | 234 kts | 17° |
| 2026-04-21 19:21 | 43.15002 | 39.74108 | 3563 ft | 231 kts | 12° |
| 2026-04-21 19:21 | 43.16533 | 39.74623 | 3501 ft | 220 kts | 20° |
| 2026-04-21 19:21 | 43.17902 | 39.75386 | 3428 ft | 207 kts | 26° |
| 2026-04-21 19:21 | 43.19173 | 39.76237 | 3255 ft | 197 kts | 28° |
| 2026-04-21 19:22 | 43.20363 | 39.77088 | 3066 ft | 190 kts | 30° |
| 2026-04-21 19:22 | 43.21532 | 39.77949 | 2885 ft | 190 kts | 31° |
| 2026-04-21 19:22 | 43.22691 | 39.78816 | 2708 ft | 189 kts | 31° |
| 2026-04-21 19:22 | 43.23847 | 39.79687 | 2527 ft | 188 kts | 31° |
| 2026-04-21 19:23 | 43.24984 | 39.80547 | 2426 ft | 188 kts | 32° |
| 2026-04-21 19:23 | 43.26141 | 39.81423 | 2423 ft | 189 kts | 31° |
| 2026-04-21 19:23 | 43.27285 | 39.82290 | 2419 ft | 188 kts | 31° |
| 2026-04-21 19:23 | 43.28449 | 39.83170 | 2421 ft | 189 kts | 31° |
| 2026-04-21 19:24 | 43.29598 | 39.84038 | 2424 ft | 189 kts | 31° |
| 2026-04-21 19:24 | 43.30736 | 39.84896 | 2424 ft | 188 kts | 31° |
| 2026-04-21 19:24 | 43.31890 | 39.85767 | 2419 ft | 188 kts | 31° |
| 2026-04-21 19:24 | 43.33036 | 39.86630 | 2285 ft | 186 kts | 31° |
| 2026-04-21 19:25 | 43.34156 | 39.87473 | 2040 ft | 180 kts | 31° |
| 2026-04-21 19:25 | 43.35219 | 39.88271 | 1784 ft | 166 kts | 31° |
| 2026-04-21 19:25 | 43.36176 | 39.88989 | 1548 ft | 150 kts | 32° |
| 2026-04-21 19:25 | 43.37064 | 39.89658 | 1355 ft | 143 kts | 32° |
| 2026-04-21 19:26 | 43.37942 | 39.90322 | 1196 ft | 142 kts | 31° |
| 2026-04-21 19:26 | 43.38799 | 39.90969 | 1033 ft | 141 kts | 31° |
| 2026-04-21 19:26 | 43.39664 | 39.91619 | 864 ft | 140 kts | 31° |
| 2026-04-21 19:26 | 43.40514 | 39.92255 | 699 ft | 140 kts | 30° |
| 2026-04-21 19:27 | 43.41364 | 39.92890 | 512 ft | 138 kts | 31° |
| 2026-04-21 19:27 | 43.42204 | 39.93527 | 332 ft | 137 kts | 30° |
| 2026-04-21 19:27 | 43.43047 | 39.94161 | 167 ft | 136 kts | 31° |
| 2026-04-21 19:27 | 43.43861 | 39.94780 | 51 ft | 128 kts | 29° |
| 2026-04-21 19:28 | 43.44498 | 39.95264 | 59 ft | 78 kts | 28° |
| 2026-04-21 19:28 | 43.44826 | 39.95509 | 64 ft | 31 kts | 29° |
| 2026-04-21 19:28 | 43.44949 | 39.95582 | 67 ft | 15 kts | 349° |
| 2026-04-21 19:28 | 43.45045 | 39.95524 | 68 ft | 14 kts | 332° |
| 2026-04-21 19:29 | 43.45051 | 39.95519 | 68 ft | 0 kts | 327° |
| 2026-04-21 19:29 | 43.45067 | 39.95499 | 68 ft | 11 kts | 310° |
| 2026-04-21 19:29 | 43.45095 | 39.95370 | 66 ft | 15 kts | 256° |
| 2026-04-21 19:29 | 43.45047 | 39.95226 | 62 ft | 18 kts | 244° |
| 2026-04-21 19:30 | 43.44984 | 39.95076 | 60 ft | 16 kts | 223° |
| 2026-04-21 19:30 | 43.44928 | 39.94936 | 57 ft | 18 kts | 245° |
| 2026-04-21 19:30 | 43.44874 | 39.94776 | 58 ft | 18 kts | 244° |
| 2026-04-21 19:30 | 43.44819 | 39.94615 | 57 ft | 19 kts | 245° |
| 2026-04-21 19:31 | 43.44785 | 39.94507 | 56 ft | 5 kts | 269° |
| 2026-04-21 19:31 | 43.44801 | 39.94467 | 57 ft | 4 kts | 322° |
| 2026-04-21 19:31 | 43.44828 | 39.94448 | 58 ft | 3 kts | 334° |
| 2026-04-21 19:31 | 43.44837 | 39.94441 | 58 ft | 0 kts | 334° |